Whittemore, Michigan
Current Conditions -  °F | °C
As of 3:34 AM on Friday 31 Oct 2014 (Local Time) from KOSC Reporting Station
Light Rain Light Rain  
Wind Chill: 38°   Ceiling: 4500
Heat Index: 41°   Visibility: 7mi
Dew Point: 40°   Wind: 5mph
Humidity: 98%   Direction: 240°WSW
Pressure: 29.89"   Gusts: NA
Location:  44.23°N, 83.8°W
Report Text: KOSC 310734Z AUTO 24004KT 7SM -RA SCT018 BKN045 OVC065 05/05 A2989 RMK AO2 P0001 T00500047
Loading
Personal Weather Stations






























Interactive Weather Map
Tropical Storm Tracking
New forecast layout! Learn more

10-Day Weather Forecast

Advertisements
Track Severe Weather on mobile